createdAt,value
2022-09-20T00:00:43.161Z,52.88
2022-09-20T00:01:43.128Z,58.46
2022-09-20T00:02:43.070Z,52.72
2022-09-20T00:03:43.061Z,58.22
2022-09-20T00:04:43.103Z,54.54
2022-09-20T00:05:43.045Z,59.96
2022-09-20T00:06:43.079Z,60.89
2022-09-20T00:07:43.034Z,57.69
2022-09-20T00:08:43.025Z,52.74
2022-09-20T00:09:43.045Z,53.82
2022-09-20T00:10:43.023Z,65.00
2022-09-20T00:11:43.006Z,52.93
2022-09-20T00:12:43.014Z,53.58
2022-09-20T00:13:42.990Z,52.77
2022-09-20T00:14:42.991Z,62.74
2022-09-20T00:15:43.007Z,53.46
2022-09-20T00:16:43.070Z,55.95
2022-09-20T00:17:42.988Z,55.46
2022-09-20T00:18:42.966Z,52.90
2022-09-20T00:19:42.960Z,52.50
2022-09-20T00:20:42.984Z,62.91
2022-09-20T00:21:42.942Z,58.35
2022-09-20T00:22:42.937Z,58.65
2022-09-20T00:23:43.125Z,52.52
2022-09-20T00:24:48.166Z,52.48
2022-09-20T00:25:45.002Z,52.65
2022-09-20T00:26:42.934Z,52.90
2022-09-20T00:27:42.954Z,52.73
2022-09-20T00:28:42.937Z,52.76
2022-09-20T00:29:42.994Z,64.23
2022-09-20T00:30:42.902Z,54.66
2022-09-20T00:31:43.211Z,57.02
2022-09-20T00:32:42.881Z,55.91
2022-09-20T00:33:42.920Z,57.71
2022-09-20T00:34:42.858Z,56.88
2022-09-20T00:35:42.893Z,54.26
2022-09-20T00:36:42.884Z,64.38
2022-09-20T00:37:42.830Z,54.52
2022-09-20T00:38:42.850Z,58.70
2022-09-20T00:39:42.818Z,53.56
2022-09-20T00:40:42.951Z,59.26
2022-09-20T00:41:42.822Z,53.95
2022-09-20T00:42:42.798Z,54.47
2022-09-20T00:43:42.827Z,53.88
2022-09-20T00:44:42.832Z,62.63
2022-09-20T00:45:42.828Z,53.30
2022-09-20T00:46:42.779Z,61.97
2022-09-20T00:47:42.850Z,53.16
2022-09-20T00:48:42.774Z,53.66
2022-09-20T00:49:43.758Z,53.52
2022-09-20T00:50:42.778Z,53.35
2022-09-20T00:51:42.762Z,52.91
2022-09-20T00:52:42.741Z,57.76
2022-09-20T00:53:42.745Z,58.46
2022-09-20T00:54:42.743Z,53.39
2022-09-20T00:55:42.718Z,53.40
2022-09-20T00:56:42.733Z,52.91
2022-09-20T00:57:42.746Z,57.49
2022-09-20T00:58:42.710Z,53.95
2022-09-20T00:59:42.692Z,53.11
2022-09-20T01:00:42.797Z,52.99
2022-09-20T01:01:42.731Z,53.49
2022-09-20T01:02:42.757Z,53.13
2022-09-20T01:03:42.753Z,58.01
2022-09-20T01:04:42.643Z,57.32
2022-09-20T01:05:42.656Z,52.93
2022-09-20T01:06:42.621Z,61.88
2022-09-20T01:07:42.613Z,59.29
2022-09-20T01:08:42.661Z,53.19
2022-09-20T01:09:42.615Z,52.97
2022-09-20T01:10:42.602Z,60.42
2022-09-20T01:11:42.593Z,59.60
2022-09-20T01:12:42.569Z,54.05
2022-09-20T01:13:42.597Z,62.35
2022-09-20T01:14:42.554Z,53.28
2022-09-20T01:15:42.578Z,52.75
2022-09-20T01:16:42.589Z,52.63
2022-09-20T01:17:42.558Z,52.76
2022-09-20T01:18:42.542Z,52.67
2022-09-20T01:19:42.534Z,52.65
2022-09-20T01:20:42.521Z,52.77
2022-09-20T01:21:42.514Z,52.66
2022-09-20T01:22:42.541Z,52.80
2022-09-20T01:23:42.509Z,52.94
2022-09-20T01:24:42.489Z,61.09
2022-09-20T01:25:42.494Z,58.72
2022-09-20T01:26:42.495Z,52.88
2022-09-20T01:27:42.494Z,52.82
2022-09-20T01:28:42.461Z,52.73
2022-09-20T01:29:42.499Z,63.87
2022-09-20T01:30:42.460Z,53.33
2022-09-20T01:31:42.500Z,53.05
2022-09-20T01:32:42.480Z,60.22
2022-09-20T01:33:42.449Z,63.35
2022-09-20T01:34:42.437Z,52.87
2022-09-20T01:35:42.433Z,52.50
2022-09-20T01:36:42.418Z,52.79
2022-09-20T01:37:42.425Z,68.47
2022-09-20T01:38:42.441Z,59.62
2022-09-20T01:39:42.401Z,57.86
2022-09-20T01:40:42.440Z,60.33
2022-09-20T01:41:42.388Z,52.67
2022-09-20T01:42:42.408Z,52.44
2022-09-20T01:43:42.374Z,54.67
2022-09-20T01:44:42.362Z,52.70
2022-09-20T01:45:42.452Z,52.57
2022-09-20T01:46:42.351Z,52.45
2022-09-20T01:47:42.363Z,52.46
2022-09-20T01:48:42.351Z,52.76
2022-09-20T01:49:42.343Z,60.20
2022-09-20T01:50:42.343Z,54.56
2022-09-20T01:51:42.323Z,55.08
2022-09-20T01:52:42.306Z,64.44
2022-09-20T01:53:42.307Z,56.99
2022-09-20T01:54:42.307Z,59.67
2022-09-20T01:55:42.287Z,54.01
2022-09-20T01:56:42.284Z,54.04
2022-09-20T01:57:42.281Z,53.58
2022-09-20T01:58:42.307Z,53.56
2022-09-20T01:59:42.263Z,58.95
2022-09-20T02:00:42.297Z,59.88
2022-09-20T02:01:42.241Z,59.15
2022-09-20T02:03:15.754Z,53.48
2022-09-20T02:03:42.248Z,53.03
2022-09-20T02:04:42.238Z,53.97
2022-09-20T02:05:42.253Z,53.49
2022-09-20T02:06:43.270Z,63.62
2022-09-20T02:07:42.235Z,59.65
2022-09-20T02:08:42.257Z,58.95
2022-09-20T02:09:42.193Z,52.98
2022-09-20T02:10:42.185Z,52.79
2022-09-20T02:11:42.191Z,57.00
2022-09-20T02:12:42.193Z,53.19
2022-09-20T02:13:42.189Z,52.97
2022-09-20T02:14:42.157Z,52.83
2022-09-20T02:15:42.166Z,52.84
2022-09-20T02:16:42.224Z,62.94
2022-09-20T02:17:42.150Z,63.92
2022-09-20T02:18:42.131Z,63.97
2022-09-20T02:19:42.155Z,52.96
2022-09-20T02:20:42.125Z,61.26
2022-09-20T02:21:42.117Z,64.17
2022-09-20T02:22:42.156Z,62.41
2022-09-20T02:23:42.107Z,57.52
2022-09-20T02:24:42.114Z,55.06
2022-09-20T02:25:42.102Z,63.98
2022-09-20T02:26:42.115Z,58.47
2022-09-20T02:27:42.151Z,52.86
2022-09-20T02:28:42.093Z,55.92
2022-09-20T02:29:42.069Z,58.33
2022-09-20T02:30:42.082Z,62.73
2022-09-20T02:31:42.128Z,68.41
2022-09-20T02:32:42.053Z,53.93
2022-09-20T02:33:42.093Z,57.18
2022-09-20T02:34:42.035Z,60.36
2022-09-20T02:35:42.040Z,52.99
2022-09-20T02:36:42.006Z,52.63
2022-09-20T02:37:42.006Z,57.43
2022-09-20T02:38:42.258Z,58.04
2022-09-20T02:39:42.742Z,65.95
2022-09-20T02:40:42.104Z,68.67
2022-09-20T02:41:41.993Z,53.90
2022-09-20T02:42:41.995Z,63.92
2022-09-20T02:43:41.998Z,61.94
2022-09-20T02:44:41.966Z,56.53
2022-09-20T02:45:42.058Z,61.84
2022-09-20T02:46:41.949Z,62.56
2022-09-20T02:47:41.938Z,59.98
2022-09-20T02:48:42.038Z,53.20
2022-09-20T02:49:41.951Z,58.79
2022-09-20T02:50:41.929Z,58.68
2022-09-20T02:51:41.957Z,58.90
2022-09-20T02:52:41.930Z,60.27
2022-09-20T02:53:42.062Z,55.51
2022-09-20T02:54:41.914Z,69.06
2022-09-20T02:55:41.926Z,57.58
2022-09-20T02:56:41.906Z,61.78
2022-09-20T02:57:41.880Z,59.58
2022-09-20T02:58:41.865Z,66.25
2022-09-20T02:59:41.894Z,65.92
2022-09-20T03:00:41.869Z,63.85
2022-09-20T03:01:41.937Z,67.99
2022-09-20T03:02:41.957Z,67.05
2022-09-20T03:03:41.828Z,65.59
2022-09-20T03:04:41.832Z,64.00
2022-09-20T03:05:41.842Z,71.37
2022-09-20T03:06:41.882Z,63.45
2022-09-20T03:07:41.834Z,63.76
2022-09-20T03:08:41.805Z,62.24
2022-09-20T03:09:41.810Z,62.48
2022-09-20T03:10:41.810Z,69.81
2022-09-20T03:11:41.835Z,68.72
2022-09-20T03:12:41.788Z,68.70
2022-09-20T03:13:41.878Z,65.91
2022-09-20T03:14:41.774Z,59.80
2022-09-20T03:15:41.793Z,70.55
2022-09-20T03:16:41.833Z,66.44
2022-09-20T03:17:41.742Z,65.00
2022-09-20T03:18:41.741Z,68.80
2022-09-20T03:19:41.774Z,57.76
2022-09-20T03:20:41.733Z,63.86
2022-09-20T03:21:41.789Z,69.88
2022-09-20T03:22:41.741Z,61.69
2022-09-20T03:23:41.713Z,58.51
2022-09-20T03:24:41.706Z,66.86
2022-09-20T03:25:41.705Z,68.79
2022-09-20T03:26:41.710Z,65.97
2022-09-20T03:27:41.682Z,69.56
2022-09-20T03:28:41.693Z,67.26
2022-09-20T03:29:41.674Z,63.67
2022-09-20T03:30:41.738Z,64.90
2022-09-20T03:31:41.818Z,71.12
2022-09-20T03:32:41.709Z,71.74
2022-09-20T03:33:41.717Z,71.22
2022-09-20T03:34:41.673Z,72.28
2022-09-20T03:35:41.660Z,70.26
2022-09-20T03:36:42.357Z,58.92
2022-09-20T03:37:41.609Z,72.21
2022-09-20T03:38:41.604Z,65.71
2022-09-20T03:39:41.637Z,74.02
2022-09-20T03:40:46.223Z,70.92
2022-09-20T03:41:43.721Z,61.62
2022-09-20T03:42:41.615Z,71.34
2022-09-20T03:43:41.627Z,67.39
2022-09-20T03:44:41.579Z,73.13
2022-09-20T03:45:41.662Z,68.85
2022-09-20T03:46:41.794Z,74.54
2022-09-20T03:47:41.592Z,66.67
2022-09-20T03:48:41.576Z,69.76
2022-09-20T03:49:41.564Z,71.83
2022-09-20T03:50:41.544Z,73.63
2022-09-20T03:51:41.578Z,73.17
2022-09-20T03:52:41.677Z,70.70
2022-09-20T03:53:41.649Z,66.78
2022-09-20T03:54:41.577Z,69.47
2022-09-20T03:55:41.549Z,69.14
2022-09-20T03:56:41.597Z,70.21
2022-09-20T03:57:41.625Z,68.99
2022-09-20T03:58:41.533Z,73.38
2022-09-20T03:59:41.598Z,69.59
2022-09-20T04:00:41.546Z,66.75
2022-09-20T04:01:41.525Z,69.35
2022-09-20T04:02:41.607Z,71.27
2022-09-20T04:03:41.563Z,69.97
2022-09-20T04:04:41.490Z,69.46
2022-09-20T04:05:41.530Z,68.53
2022-09-20T04:06:41.450Z,55.55
2022-09-20T04:07:41.447Z,72.80
2022-09-20T04:08:41.442Z,69.10
2022-09-20T04:09:41.428Z,67.20
2022-09-20T04:10:41.406Z,71.71
2022-09-20T04:11:41.403Z,71.90
2022-09-20T04:12:41.405Z,72.75
2022-09-20T04:13:41.423Z,70.45
2022-09-20T04:14:41.446Z,71.32
2022-09-20T04:15:41.387Z,70.40
2022-09-20T04:16:41.502Z,67.00
2022-09-20T04:17:41.392Z,75.16
2022-09-20T04:18:41.425Z,70.75
2022-09-20T04:19:41.351Z,71.64
2022-09-20T04:20:41.600Z,74.56
2022-09-20T04:21:41.441Z,71.52
2022-09-20T04:22:41.358Z,72.92
2022-09-20T04:23:41.343Z,69.03
2022-09-20T04:24:41.329Z,70.21
2022-09-20T04:25:44.058Z,68.37
2022-09-20T04:26:42.292Z,70.85
2022-09-20T04:27:41.313Z,65.20
2022-09-20T04:28:41.333Z,69.77
2022-09-20T04:29:41.328Z,73.15
2022-09-20T04:30:41.312Z,66.00
2022-09-20T04:31:41.543Z,73.58
2022-09-20T04:32:41.312Z,68.59
2022-09-20T04:33:41.331Z,70.34
2022-09-20T04:34:42.263Z,67.45
2022-09-20T04:35:41.308Z,73.64
2022-09-20T04:36:41.332Z,72.08
2022-09-20T04:37:41.224Z,72.28
2022-09-20T04:38:41.240Z,74.28
2022-09-20T04:39:41.237Z,72.36
2022-09-20T04:40:41.257Z,71.42
2022-09-20T04:41:41.262Z,65.97
2022-09-20T04:42:41.191Z,73.63
2022-09-20T04:43:41.182Z,76.48
2022-09-20T04:44:41.198Z,73.45
2022-09-20T04:45:41.244Z,68.97
2022-09-20T04:46:41.857Z,71.54
2022-09-20T04:47:41.163Z,74.60
2022-09-20T04:48:41.166Z,73.71
2022-09-20T04:49:41.169Z,72.02
2022-09-20T04:50:41.225Z,71.47
2022-09-20T04:51:41.169Z,71.20
2022-09-20T04:52:41.146Z,73.34
2022-09-20T04:53:41.742Z,71.56
2022-09-20T04:54:41.901Z,73.54
2022-09-20T04:55:41.139Z,70.84
2022-09-20T04:56:41.101Z,72.50
2022-09-20T04:57:41.165Z,71.48
2022-09-20T04:58:41.285Z,69.34
2022-09-20T04:59:41.208Z,71.83
2022-09-20T05:00:41.454Z,71.00
2022-09-20T05:01:41.200Z,65.81
2022-09-20T05:02:41.380Z,70.80
2022-09-20T05:03:41.171Z,74.21
2022-09-20T05:04:41.039Z,72.26
2022-09-20T05:05:41.039Z,74.30
2022-09-20T05:06:41.043Z,71.19
2022-09-20T05:07:41.068Z,71.50
2022-09-20T05:08:41.043Z,67.99
2022-09-20T05:09:41.011Z,74.89
2022-09-20T05:10:41.011Z,72.86
2022-09-20T05:11:41.047Z,73.77
2022-09-20T05:12:40.991Z,74.26
2022-09-20T05:13:40.979Z,70.08
2022-09-20T05:14:40.976Z,74.48
2022-09-20T05:15:40.978Z,71.90
2022-09-20T05:16:43.375Z,75.55
2022-09-20T05:17:40.947Z,71.95
2022-09-20T05:18:40.972Z,72.27
2022-09-20T05:19:40.931Z,72.14
2022-09-20T05:20:40.948Z,72.54
2022-09-20T05:21:40.931Z,68.06
2022-09-20T05:22:40.934Z,72.32
2022-09-20T05:23:41.959Z,67.44
2022-09-20T05:24:40.914Z,70.37
2022-09-20T05:25:40.914Z,73.35
2022-09-20T05:26:40.948Z,73.17
2022-09-20T05:27:40.900Z,73.12
2022-09-20T05:28:40.926Z,77.36
2022-09-20T05:29:41.871Z,74.09
2022-09-20T05:30:40.897Z,73.40
2022-09-20T05:31:40.906Z,73.76
2022-09-20T05:32:40.879Z,72.36
2022-09-20T05:33:40.890Z,71.58
2022-09-20T05:34:40.847Z,74.08
2022-09-20T05:35:40.839Z,73.21
2022-09-20T05:36:40.827Z,71.31
2022-09-20T05:37:40.836Z,71.43
2022-09-20T05:38:40.870Z,74.52
2022-09-20T05:39:40.818Z,73.51
2022-09-20T05:40:40.799Z,74.68
2022-09-20T05:41:40.823Z,72.67
2022-09-20T05:42:40.803Z,73.56
2022-09-20T05:43:40.783Z,71.57
2022-09-20T05:44:40.781Z,68.59
2022-09-20T05:45:40.807Z,70.79
2022-09-20T05:46:40.763Z,72.50
2022-09-20T05:47:40.786Z,74.41
2022-09-20T05:48:40.751Z,70.63
2022-09-20T05:49:40.739Z,70.68
2022-09-20T05:50:40.746Z,72.63
2022-09-20T05:51:40.730Z,71.47
2022-09-20T05:52:40.726Z,73.24
2022-09-20T05:53:40.734Z,76.26
2022-09-20T05:54:40.712Z,71.73
2022-09-20T05:55:40.718Z,72.17
2022-09-20T05:56:40.713Z,71.97
2022-09-20T05:57:40.707Z,67.53
2022-09-20T05:58:40.702Z,73.54
2022-09-20T05:59:40.690Z,69.84
2022-09-20T06:00:40.670Z,72.97
2022-09-20T06:01:40.687Z,66.75
2022-09-20T06:02:40.708Z,72.48
2022-09-20T06:03:40.682Z,69.30
2022-09-20T06:04:40.643Z,73.08
2022-09-20T06:05:40.635Z,74.15
2022-09-20T06:06:40.675Z,71.71
2022-09-20T06:07:40.616Z,71.29
2022-09-20T06:08:40.628Z,71.65
2022-09-20T06:09:40.602Z,71.47
2022-09-20T06:10:40.594Z,72.84
2022-09-20T06:11:42.131Z,71.51
2022-09-20T06:12:40.626Z,73.70
2022-09-20T06:13:40.611Z,72.16
2022-09-20T06:14:40.574Z,74.57
2022-09-20T06:15:40.562Z,69.75
2022-09-20T06:16:40.609Z,77.97
2022-09-20T06:17:40.546Z,71.06
2022-09-20T06:18:40.547Z,72.36
2022-09-20T06:19:40.559Z,73.10
2022-09-20T06:20:40.524Z,72.45
2022-09-20T06:21:40.519Z,74.50
2022-09-20T06:22:40.518Z,73.05
2022-09-20T06:23:40.559Z,73.51
2022-09-20T06:24:40.531Z,72.74
2022-09-20T06:25:40.503Z,68.20
2022-09-20T06:26:40.491Z,74.55
2022-09-20T06:27:40.486Z,71.69
2022-09-20T06:28:40.506Z,70.73
2022-09-20T06:29:40.557Z,73.53
2022-09-20T06:30:41.540Z,74.29
2022-09-20T06:31:40.476Z,72.73
2022-09-20T06:32:40.466Z,70.04
2022-09-20T06:33:40.611Z,72.13
2022-09-20T06:34:40.462Z,71.33
2022-09-20T06:35:40.447Z,70.11
2022-09-20T06:36:40.486Z,71.70
2022-09-20T06:37:40.422Z,73.95
2022-09-20T06:38:40.415Z,73.79
2022-09-20T06:39:40.510Z,69.92
2022-09-20T06:40:41.343Z,70.18
2022-09-20T06:41:40.403Z,75.53
2022-09-20T06:42:40.470Z,73.34
2022-09-20T06:43:40.397Z,70.16
2022-09-20T06:44:40.383Z,68.29
2022-09-20T06:45:40.551Z,76.09
2022-09-20T06:46:40.371Z,75.46
2022-09-20T06:47:40.360Z,72.37
2022-09-20T06:48:40.351Z,71.84
2022-09-20T06:49:40.380Z,67.07
2022-09-20T06:50:40.350Z,68.75
2022-09-20T06:51:40.342Z,70.54
2022-09-20T06:52:40.468Z,68.46
2022-09-20T06:53:40.331Z,70.24
2022-09-20T06:54:40.338Z,74.68
2022-09-20T06:55:40.330Z,73.49
2022-09-20T06:56:40.322Z,71.80
2022-09-20T06:57:40.286Z,69.81
2022-09-20T06:58:40.270Z,75.63
2022-09-20T06:59:40.319Z,72.04
2022-09-20T07:00:40.257Z,65.81
2022-09-20T07:01:40.332Z,68.63
2022-09-20T07:02:40.322Z,71.56
2022-09-20T07:03:40.250Z,75.13
2022-09-20T07:04:40.249Z,71.14
2022-09-20T07:05:40.231Z,69.25
2022-09-20T07:06:40.231Z,65.16
2022-09-20T07:07:41.302Z,72.43
2022-09-20T07:08:40.216Z,70.30
2022-09-20T07:09:40.203Z,72.55
2022-09-20T07:10:40.314Z,72.01
2022-09-20T07:11:40.206Z,66.82
2022-09-20T07:12:40.182Z,72.32
2022-09-20T07:13:40.274Z,68.61
2022-09-20T07:14:40.172Z,69.56
2022-09-20T07:15:40.163Z,67.96
2022-09-20T07:16:40.283Z,72.71
2022-09-20T07:17:40.247Z,71.22
2022-09-20T07:18:40.155Z,70.86
2022-09-20T07:19:40.135Z,69.25
2022-09-20T07:20:40.126Z,73.99
2022-09-20T07:21:40.126Z,67.04
2022-09-20T07:22:40.149Z,69.34
2022-09-20T07:23:40.118Z,72.18
2022-09-20T07:24:40.111Z,69.07
2022-09-20T07:25:40.090Z,65.20
2022-09-20T07:26:40.078Z,73.92
2022-09-20T07:27:40.107Z,75.76
2022-09-20T07:28:40.070Z,66.57
2022-09-20T07:29:40.098Z,68.19
2022-09-20T07:30:40.083Z,68.91
2022-09-20T07:31:40.094Z,67.95
2022-09-20T07:32:40.060Z,70.79
2022-09-20T07:33:40.066Z,70.65
2022-09-20T07:34:40.035Z,69.80
2022-09-20T07:35:40.027Z,74.23
2022-09-20T07:36:40.030Z,68.38
2022-09-20T07:37:40.027Z,70.45
2022-09-20T07:38:40.018Z,74.20
2022-09-20T07:39:40.050Z,73.46
2022-09-20T07:40:40.042Z,65.57
2022-09-20T07:41:39.982Z,68.51
2022-09-20T07:42:39.993Z,70.95
2022-09-20T07:43:39.991Z,67.20
2022-09-20T07:44:39.963Z,68.97
2022-09-20T07:45:39.973Z,69.71
2022-09-20T07:46:39.946Z,73.58
2022-09-20T07:47:39.942Z,71.06
2022-09-20T07:48:39.974Z,66.33
2022-09-20T07:49:39.954Z,66.17
2022-09-20T07:50:39.918Z,70.59
2022-09-20T07:51:39.916Z,70.29
2022-09-20T07:52:39.934Z,71.34
2022-09-20T07:53:39.914Z,69.07
2022-09-20T07:54:39.884Z,73.98
2022-09-20T07:55:39.891Z,73.38
2022-09-20T07:56:39.891Z,71.70
2022-09-20T07:57:39.871Z,71.06
2022-09-20T07:58:39.907Z,74.78
2022-09-20T07:59:39.850Z,67.74
2022-09-20T08:00:39.852Z,63.82
2022-09-20T08:01:39.952Z,70.78
2022-09-20T08:02:39.887Z,75.66
2022-09-20T08:04:06.299Z,74.96
2022-09-20T08:04:39.813Z,71.65
2022-09-20T08:05:39.827Z,73.62
2022-09-20T08:06:39.802Z,71.44
2022-09-20T08:07:39.858Z,68.55
2022-09-20T08:08:39.778Z,65.93
2022-09-20T08:09:39.788Z,73.24
2022-09-20T08:10:39.818Z,72.36
2022-09-20T08:11:39.815Z,71.48
2022-09-20T08:14:42.138Z,68.91
2022-09-20T08:15:39.778Z,73.22
2022-09-20T08:16:39.837Z,70.20
2022-09-20T08:17:39.739Z,69.96
2022-09-20T08:18:39.722Z,64.99
2022-09-20T08:19:39.734Z,63.38
2022-09-20T08:20:39.714Z,64.80
2022-09-20T08:21:39.706Z,70.10
2022-09-20T08:22:39.703Z,70.07
2022-09-20T08:23:39.695Z,70.21
2022-09-20T08:24:39.706Z,69.63
2022-09-20T08:25:39.723Z,73.62
2022-09-20T08:26:39.727Z,67.38
2022-09-20T08:27:39.658Z,70.68
2022-09-20T08:28:39.662Z,71.15
2022-09-20T08:29:39.686Z,67.91
2022-09-20T08:30:39.642Z,70.74
2022-09-20T08:31:39.769Z,71.70
2022-09-20T08:32:39.629Z,67.04
2022-09-20T08:33:39.619Z,74.17
2022-09-20T08:34:39.677Z,70.21
2022-09-20T08:35:39.610Z,72.33
2022-09-20T08:36:39.670Z,70.52
2022-09-20T08:37:40.250Z,70.69
2022-09-20T08:39:59.026Z,69.70
2022-09-20T08:40:41.776Z,71.17
2022-09-20T08:41:39.666Z,70.94
2022-09-20T08:42:44.418Z,73.52
2022-09-20T08:43:45.677Z,72.63
2022-09-20T08:44:45.280Z,73.99
2022-09-20T08:45:40.787Z,70.48
2022-09-20T08:46:39.551Z,70.11
2022-09-20T08:47:39.620Z,72.22
2022-09-20T08:48:39.795Z,74.92
2022-09-20T08:49:40.518Z,61.31
2022-09-20T08:50:40.443Z,70.67
2022-09-20T08:51:40.559Z,71.82
2022-09-20T08:52:40.969Z,68.11
2022-09-20T08:53:39.502Z,63.53
2022-09-20T08:54:39.518Z,66.74
2022-09-20T08:55:39.524Z,69.94
2022-09-20T08:56:39.620Z,70.35
2022-09-20T08:57:39.483Z,71.91
2022-09-20T08:58:39.494Z,71.79
2022-09-20T08:59:39.455Z,72.53
2022-09-20T09:00:39.467Z,67.28
2022-09-20T09:01:39.438Z,71.70
2022-09-20T09:02:39.520Z,69.64
2022-09-20T09:03:39.438Z,70.33
2022-09-20T09:04:39.463Z,72.70
2022-09-20T09:05:39.419Z,72.11
2022-09-20T09:06:39.427Z,73.36
2022-09-20T09:07:39.413Z,73.69
2022-09-20T09:08:39.424Z,72.42
2022-09-20T09:09:39.427Z,66.97
2022-09-20T09:10:42.832Z,65.60
2022-09-20T09:11:45.844Z,71.02
2022-09-20T09:12:40.387Z,69.91
2022-09-20T09:13:39.374Z,69.87
2022-09-20T09:14:39.357Z,71.57
2022-09-20T09:15:39.359Z,64.22
2022-09-20T09:16:39.397Z,66.89
2022-09-20T09:17:39.338Z,69.83
2022-09-20T09:18:39.372Z,71.57
2022-09-20T09:19:39.322Z,69.99
2022-09-20T09:20:39.310Z,66.73
2022-09-20T09:21:39.399Z,69.95
2022-09-20T09:22:39.303Z,71.89
2022-09-20T09:23:39.791Z,69.91
2022-09-20T09:24:39.322Z,69.79
2022-09-20T09:25:39.302Z,66.57
2022-09-20T09:26:39.912Z,68.85
2022-09-20T09:27:39.267Z,71.06
2022-09-20T09:28:39.266Z,73.47
2022-09-20T09:29:39.266Z,69.30
2022-09-20T09:30:39.265Z,70.05
2022-09-20T09:31:39.257Z,67.92
2022-09-20T09:32:39.239Z,72.24
2022-09-20T09:33:39.234Z,73.37
2022-09-20T09:34:39.246Z,70.74
2022-09-20T09:35:39.219Z,68.69
2022-09-20T09:36:39.218Z,72.69
2022-09-20T09:37:39.222Z,69.68
2022-09-20T09:38:39.206Z,69.02
2022-09-20T09:39:39.198Z,74.20
2022-09-20T09:40:39.238Z,72.17
2022-09-20T09:41:39.182Z,70.34
2022-09-20T09:42:39.170Z,74.27
2022-09-20T09:43:39.170Z,71.99
2022-09-20T09:44:39.229Z,68.67
2022-09-20T09:45:39.344Z,72.41
2022-09-20T09:46:39.138Z,72.04
2022-09-20T09:47:39.142Z,72.41
2022-09-20T09:48:40.222Z,70.49
2022-09-20T09:49:40.169Z,69.93
2022-09-20T09:50:39.168Z,73.38
2022-09-20T09:51:39.144Z,70.02
2022-09-20T09:52:39.115Z,68.86
2022-09-20T09:53:39.148Z,72.88
2022-09-20T09:54:39.108Z,71.43
2022-09-20T09:55:39.115Z,74.68
2022-09-20T09:56:39.105Z,71.05
2022-09-20T09:57:39.131Z,71.26
2022-09-20T09:58:39.080Z,73.56
2022-09-20T09:59:39.083Z,70.84
2022-09-20T10:00:39.083Z,65.90
2022-09-20T10:01:39.091Z,71.66
2022-09-20T10:02:39.115Z,73.77
2022-09-20T10:03:39.082Z,71.51
2022-09-20T10:04:39.041Z,71.61
2022-09-20T10:05:39.040Z,75.11
2022-09-20T10:06:39.055Z,72.70
2022-09-20T10:07:39.016Z,65.68
2022-09-20T10:08:39.026Z,72.45
2022-09-20T10:09:39.016Z,70.88
2022-09-20T10:10:39.026Z,74.87
2022-09-20T10:11:38.999Z,72.27
2022-09-20T10:12:38.970Z,71.03
2022-09-20T10:13:40.810Z,73.99
2022-09-20T10:14:40.000Z,69.94
2022-09-20T10:15:38.955Z,75.06
2022-09-20T10:16:39.026Z,72.03
2022-09-20T10:17:38.998Z,71.51
2022-09-20T10:18:38.922Z,73.80
2022-09-20T10:19:38.930Z,65.72
2022-09-20T10:20:38.955Z,73.09
2022-09-20T10:21:38.940Z,73.63
2022-09-20T10:22:38.940Z,72.50
2022-09-20T10:24:02.074Z,70.58
2022-09-20T10:24:40.903Z,71.58
2022-09-20T10:25:38.976Z,70.23
2022-09-20T10:26:38.904Z,70.00
2022-09-20T10:27:38.880Z,72.71
2022-09-20T10:28:38.940Z,70.63
2022-09-20T10:29:39.868Z,73.48
2022-09-20T10:30:38.918Z,68.34
2022-09-20T10:31:38.887Z,74.40
2022-09-20T10:32:39.855Z,69.73
2022-09-20T10:33:38.864Z,70.72
2022-09-20T10:34:38.861Z,67.51
2022-09-20T10:35:38.866Z,70.41
2022-09-20T10:36:38.901Z,73.60
2022-09-20T10:37:38.848Z,74.98
2022-09-20T10:38:38.928Z,73.09
2022-09-20T10:39:38.811Z,68.67
2022-09-20T10:40:38.901Z,71.95
2022-09-20T10:41:38.795Z,73.29
2022-09-20T10:42:38.785Z,71.76
2022-09-20T10:43:38.847Z,70.36
2022-09-20T10:44:38.768Z,69.34
2022-09-20T10:46:14.533Z,71.54
2022-09-20T10:46:40.867Z,68.83
2022-09-20T10:47:38.795Z,74.65
2022-09-20T10:48:38.748Z,67.97
2022-09-20T10:49:38.779Z,70.28
2022-09-20T10:50:38.739Z,73.57
2022-09-20T10:51:38.783Z,74.38
2022-09-20T10:52:38.836Z,69.65
2022-09-20T10:53:38.715Z,67.66
2022-09-20T10:54:38.711Z,74.27
2022-09-20T10:55:38.712Z,70.89
2022-09-20T10:56:38.752Z,69.75
2022-09-20T10:57:41.151Z,73.77
2022-09-20T10:58:38.685Z,73.11
2022-09-20T10:59:38.788Z,69.19
2022-09-20T11:00:40.041Z,72.22
2022-09-20T11:01:38.748Z,72.17
2022-09-20T11:02:38.734Z,69.55
2022-09-20T11:03:38.664Z,60.22
2022-09-20T11:04:38.676Z,73.57
2022-09-20T11:05:38.639Z,68.76
2022-09-20T11:06:38.653Z,69.79
2022-09-20T11:07:38.618Z,74.94
2022-09-20T11:08:38.828Z,73.73
2022-09-20T11:09:38.632Z,71.24
2022-09-20T11:10:38.629Z,71.26
2022-09-20T11:11:38.612Z,71.29
2022-09-20T11:12:38.581Z,65.00
2022-09-20T11:13:38.652Z,71.97
2022-09-20T11:14:38.593Z,70.88
2022-09-20T11:15:38.641Z,67.83
2022-09-20T11:16:38.656Z,70.39
2022-09-20T11:17:38.552Z,71.90
2022-09-20T11:18:38.549Z,70.94
2022-09-20T11:19:38.544Z,71.69
2022-09-20T11:20:38.551Z,71.54
2022-09-20T11:21:38.536Z,70.65
2022-09-20T11:22:38.520Z,72.99
2022-09-20T11:23:38.568Z,70.36
2022-09-20T11:24:38.518Z,71.25
2022-09-20T11:25:38.549Z,74.60
2022-09-20T11:26:38.505Z,72.47
2022-09-20T11:27:38.529Z,71.55
2022-09-20T11:28:38.484Z,70.08
2022-09-20T11:29:38.488Z,69.94
2022-09-20T11:30:38.493Z,71.09
2022-09-20T11:31:38.575Z,69.21
2022-09-20T11:32:38.504Z,74.66
2022-09-20T11:33:41.455Z,69.63
2022-09-20T11:34:39.452Z,71.28
2022-09-20T11:35:38.643Z,73.37
2022-09-20T11:36:39.368Z,73.37
2022-09-20T11:37:38.424Z,72.05
2022-09-20T11:38:38.444Z,70.47
2022-09-20T11:39:38.404Z,71.84
2022-09-20T11:40:38.485Z,69.31
2022-09-20T11:41:38.539Z,69.90
2022-09-20T11:42:38.392Z,73.44
2022-09-20T11:43:38.382Z,71.39
2022-09-20T11:44:38.448Z,75.24
2022-09-20T11:45:38.397Z,73.95
2022-09-20T11:46:38.351Z,71.65
2022-09-20T11:47:53.850Z,70.79
2022-09-20T11:48:40.352Z,75.61
2022-09-20T11:49:38.348Z,73.67
2022-09-20T11:50:38.444Z,83.23
2022-09-20T11:51:38.468Z,70.82
2022-09-20T11:52:38.340Z,74.33
2022-09-20T11:53:38.347Z,65.99
2022-09-20T11:54:38.351Z,73.47
2022-09-20T11:55:38.335Z,74.09
2022-09-20T11:56:38.356Z,68.88
2022-09-20T11:57:38.293Z,75.47
2022-09-20T11:58:38.332Z,74.97
2022-09-20T11:59:38.276Z,70.81
2022-09-20T12:00:38.296Z,71.47
2022-09-20T12:01:38.320Z,71.47
2022-09-20T12:02:38.419Z,71.07
2022-09-20T12:03:38.321Z,75.18
2022-09-20T12:04:38.625Z,74.21
2022-09-20T12:05:38.322Z,68.67
2022-09-20T12:06:38.248Z,74.75
2022-09-20T12:07:38.696Z,71.15
2022-09-20T12:08:38.223Z,73.14
2022-09-20T12:09:38.215Z,71.79
2022-09-20T12:10:38.272Z,70.22
2022-09-20T12:11:38.213Z,74.68
2022-09-20T12:12:38.216Z,71.36
2022-09-20T12:13:38.229Z,70.89
2022-09-20T12:14:38.805Z,71.82
2022-09-20T12:15:38.199Z,68.67
2022-09-20T12:16:38.271Z,71.13
2022-09-20T12:17:38.159Z,72.38
2022-09-20T12:18:38.235Z,67.94
2022-09-20T12:19:38.161Z,72.24
2022-09-20T12:20:38.178Z,74.78
2022-09-20T12:21:38.164Z,72.07
2022-09-20T12:22:38.138Z,71.85
2022-09-20T12:23:38.146Z,69.53
2022-09-20T12:24:41.980Z,73.17
2022-09-20T12:25:39.155Z,73.71
2022-09-20T12:26:38.184Z,70.71
2022-09-20T12:27:38.115Z,72.38
2022-09-20T12:28:38.097Z,70.98
2022-09-20T12:29:38.355Z,68.94
2022-09-20T12:30:38.090Z,73.01
2022-09-20T12:31:38.132Z,70.42
2022-09-20T12:32:38.064Z,72.97
2022-09-20T12:33:38.070Z,73.75
2022-09-20T12:34:38.054Z,70.88
2022-09-20T12:35:38.051Z,74.64
2022-09-20T12:36:38.058Z,71.31
2022-09-20T12:37:38.098Z,70.07
2022-09-20T12:38:38.025Z,70.94
2022-09-20T12:39:38.027Z,74.06
2022-09-20T12:40:38.131Z,72.79
2022-09-20T12:41:38.059Z,72.83
2022-09-20T12:42:38.035Z,74.52
2022-09-20T12:43:38.018Z,69.69
2022-09-20T12:44:37.987Z,69.63
2022-09-20T12:45:38.002Z,74.22
2022-09-20T12:46:38.137Z,71.22
2022-09-20T12:47:37.983Z,74.16
2022-09-20T12:48:37.956Z,73.23
2022-09-20T12:49:37.995Z,71.73
2022-09-20T12:50:37.952Z,73.31
2022-09-20T12:51:37.975Z,74.04
2022-09-20T12:52:37.951Z,73.80
2022-09-20T12:53:37.947Z,72.69
2022-09-20T12:54:37.929Z,71.58
2022-09-20T12:55:37.914Z,70.74